Terminal Aerodrome Forecast
Issued by NWS Atlanta, GA

Home | Current Version | Previous Version | Text Only | Print | Product List | Glossary On
Versions: 1 2 3 4 5 6 7 8 9 10 11 12 13 14 15 16
000
FTUS42 KFFC 181320 AAA
TAFMCN
TAF AMD
KMCN 181320Z 1813/1912 28003KT 6SM BR FEW250
      TEMPO 1813/1814 4SM BR
     FM181400 29003KT P6SM SCT150 BKN250
     FM181900 30005KT P6SM BKN060
     FM190100 31004KT P6SM SCT080 BKN150
     FM190900 32003KT P6SM SCT150=

USA.gov is the U.S. government's official web portal to all federal, state and local government web resources and services.